sensor_id;sensor_type;location;lat;lon;timestamp;P1;durP1;ratioP1;P2;durP2;ratioP2
63089;SDS011;49174;43.198;27.824;2022-07-06T00:01:45;4.85;;;2.35;;
63089;SDS011;49174;43.198;27.824;2022-07-06T00:04:11;4.20;;;2.47;;
63089;SDS011;49174;43.198;27.824;2022-07-06T00:06:37;5.65;;;2.90;;
63089;SDS011;49174;43.198;27.824;2022-07-06T00:09:03;5.30;;;2.55;;
63089;SDS011;49174;43.198;27.824;2022-07-06T00:11:30;3.92;;;2.70;;
63089;SDS011;49174;43.198;27.824;2022-07-06T00:13:56;3.67;;;2.70;;
63089;SDS011;49174;43.198;27.824;2022-07-06T00:16:22;7.78;;;3.72;;
63089;SDS011;49174;43.198;27.824;2022-07-06T00:18:48;10.05;;;3.20;;
63089;SDS011;49174;43.198;27.824;2022-07-06T00:21:14;10.57;;;3.08;;
63089;SDS011;49174;43.198;27.824;2022-07-06T00:23:39;6.25;;;3.35;;
63089;SDS011;49174;43.198;27.824;2022-07-06T00:26:06;6.60;;;4.18;;
63089;SDS011;49174;43.198;27.824;2022-07-06T00:28:32;5.05;;;3.40;;
63089;SDS011;49174;43.198;27.824;2022-07-06T00:30:58;5.63;;;3.85;;
63089;SDS011;49174;43.198;27.824;2022-07-06T00:33:23;6.32;;;4.10;;
63089;SDS011;49174;43.198;27.824;2022-07-06T00:35:49;6.07;;;3.80;;
63089;SDS011;49174;43.198;27.824;2022-07-06T00:38:15;6.82;;;4.55;;
63089;SDS011;49174;43.198;27.824;2022-07-06T00:40:40;8.50;;;5.15;;
63089;SDS011;49174;43.198;27.824;2022-07-06T00:43:06;7.53;;;4.90;;
63089;SDS011;49174;43.198;27.824;2022-07-06T00:45:36;9.60;;;5.32;;
63089;SDS011;49174;43.198;27.824;2022-07-06T00:48:02;7.40;;;5.38;;
63089;SDS011;49174;43.198;27.824;2022-07-06T00:50:27;8.40;;;5.45;;
63089;SDS011;49174;43.198;27.824;2022-07-06T00:53:04;7.90;;;5.20;;
63089;SDS011;49174;43.198;27.824;2022-07-06T00:55:35;8.15;;;5.22;;
63089;SDS011;49174;43.198;27.824;2022-07-06T00:58:05;9.55;;;5.30;;
63089;SDS011;49174;43.198;27.824;2022-07-06T01:00:31;11.02;;;6.07;;
63089;SDS011;49174;43.198;27.824;2022-07-06T01:02:57;9.60;;;6.88;;
63089;SDS011;49174;43.198;27.824;2022-07-06T01:05:23;10.80;;;5.50;;
63089;SDS011;49174;43.198;27.824;2022-07-06T01:07:50;14.45;;;6.60;;
63089;SDS011;49174;43.198;27.824;2022-07-06T01:10:17;13.20;;;6.35;;
63089;SDS011;49174;43.198;27.824;2022-07-06T01:12:45;8.80;;;5.82;;
63089;SDS011;49174;43.198;27.824;2022-07-06T01:15:12;10.63;;;6.22;;
63089;SDS011;49174;43.198;27.824;2022-07-06T01:17:40;9.45;;;6.80;;
63089;SDS011;49174;43.198;27.824;2022-07-06T01:20:17;13.10;;;6.78;;
63089;SDS011;49174;43.198;27.824;2022-07-06T01:22:47;12.35;;;6.55;;
63089;SDS011;49174;43.198;27.824;2022-07-06T01:25:13;8.77;;;5.72;;
63089;SDS011;49174;43.198;27.824;2022-07-06T01:27:39;11.38;;;6.18;;
63089;SDS011;49174;43.198;27.824;2022-07-06T01:30:07;10.13;;;6.07;;
63089;SDS011;49174;43.198;27.824;2022-07-06T01:32:33;10.13;;;6.25;;
63089;SDS011;49174;43.198;27.824;2022-07-06T01:34:59;13.65;;;7.30;;
63089;SDS011;49174;43.198;27.824;2022-07-06T01:37:25;11.13;;;6.53;;
63089;SDS011;49174;43.198;27.824;2022-07-06T01:39:50;14.00;;;6.22;;
63089;SDS011;49174;43.198;27.824;2022-07-06T01:42:16;11.10;;;6.43;;
63089;SDS011;49174;43.198;27.824;2022-07-06T01:44:42;11.60;;;6.38;;
63089;SDS011;49174;43.198;27.824;2022-07-06T01:47:09;6.18;;;5.20;;
63089;SDS011;49174;43.198;27.824;2022-07-06T01:49:35;8.93;;;5.57;;
63089;SDS011;49174;43.198;27.824;2022-07-06T01:52:01;8.40;;;6.10;;
63089;SDS011;49174;43.198;27.824;2022-07-06T01:54:26;8.27;;;5.85;;
63089;SDS011;49174;43.198;27.824;2022-07-06T01:56:52;11.73;;;6.82;;
63089;SDS011;49174;43.198;27.824;2022-07-06T01:59:18;8.90;;;6.07;;
63089;SDS011;49174;43.198;27.824;2022-07-06T02:01:43;8.30;;;5.57;;
63089;SDS011;49174;43.198;27.824;2022-07-06T02:04:09;9.82;;;6.05;;
63089;SDS011;49174;43.198;27.824;2022-07-06T02:06:34;11.15;;;7.65;;
63089;SDS011;49174;43.198;27.824;2022-07-06T02:09:00;11.88;;;7.22;;
63089;SDS011;49174;43.198;27.824;2022-07-06T02:11:25;9.93;;;6.80;;
63089;SDS011;49174;43.198;27.824;2022-07-06T02:13:52;9.00;;;6.75;;
63089;SDS011;49174;43.198;27.824;2022-07-06T02:16:18;9.57;;;6.72;;
63089;SDS011;49174;43.198;27.824;2022-07-06T02:18:44;9.32;;;6.53;;
63089;SDS011;49174;43.198;27.824;2022-07-06T02:21:09;8.55;;;6.05;;
63089;SDS011;49174;43.198;27.824;2022-07-06T02:23:35;10.00;;;6.20;;
63089;SDS011;49174;43.198;27.824;2022-07-06T02:26:00;11.68;;;6.45;;
63089;SDS011;49174;43.198;27.824;2022-07-06T02:28:26;10.68;;;6.43;;
63089;SDS011;49174;43.198;27.824;2022-07-06T02:30:52;7.93;;;5.78;;
63089;SDS011;49174;43.198;27.824;2022-07-06T02:33:17;9.02;;;6.10;;
63089;SDS011;49174;43.198;27.824;2022-07-06T02:35:43;11.43;;;6.88;;
63089;SDS011;49174;43.198;27.824;2022-07-06T02:38:09;11.55;;;5.95;;
63089;SDS011;49174;43.198;27.824;2022-07-06T02:40:35;8.70;;;6.45;;
63089;SDS011;49174;43.198;27.824;2022-07-06T02:43:01;8.52;;;5.78;;
63089;SDS011;49174;43.198;27.824;2022-07-06T02:45:27;11.88;;;6.40;;
63089;SDS011;49174;43.198;27.824;2022-07-06T02:47:52;8.13;;;5.55;;
63089;SDS011;49174;43.198;27.824;2022-07-06T02:50:20;7.90;;;5.68;;
63089;SDS011;49174;43.198;27.824;2022-07-06T02:52:46;9.57;;;6.25;;
63089;SDS011;49174;43.198;27.824;2022-07-06T02:55:11;10.40;;;5.72;;
63089;SDS011;49174;43.198;27.824;2022-07-06T02:57:38;14.27;;;6.72;;
63089;SDS011;49174;43.198;27.824;2022-07-06T03:00:04;11.68;;;7.13;;
63089;SDS011;49174;43.198;27.824;2022-07-06T03:02:31;8.10;;;6.53;;
63089;SDS011;49174;43.198;27.824;2022-07-06T03:04:56;10.85;;;7.20;;
63089;SDS011;49174;43.198;27.824;2022-07-06T03:07:22;9.75;;;6.70;;
63089;SDS011;49174;43.198;27.824;2022-07-06T03:09:48;11.00;;;6.78;;
63089;SDS011;49174;43.198;27.824;2022-07-06T03:12:13;9.32;;;6.35;;
63089;SDS011;49174;43.198;27.824;2022-07-06T03:14:39;8.48;;;5.55;;
63089;SDS011;49174;43.198;27.824;2022-07-06T03:17:04;10.88;;;6.20;;
63089;SDS011;49174;43.198;27.824;2022-07-06T03:19:30;17.38;;;6.97;;
63089;SDS011;49174;43.198;27.824;2022-07-06T03:21:56;10.07;;;7.00;;
63089;SDS011;49174;43.198;27.824;2022-07-06T03:24:21;8.35;;;5.55;;
63089;SDS011;49174;43.198;27.824;2022-07-06T03:26:47;16.23;;;7.05;;
63089;SDS011;49174;43.198;27.824;2022-07-06T03:29:12;9.30;;;7.43;;
63089;SDS011;49174;43.198;27.824;2022-07-06T03:31:38;20.10;;;9.68;;
63089;SDS011;49174;43.198;27.824;2022-07-06T03:34:03;16.70;;;9.27;;
63089;SDS011;49174;43.198;27.824;2022-07-06T03:36:29;14.15;;;9.85;;
63089;SDS011;49174;43.198;27.824;2022-07-06T03:38:55;13.60;;;9.95;;
63089;SDS011;49174;43.198;27.824;2022-07-06T03:41:20;16.50;;;10.52;;
63089;SDS011;49174;43.198;27.824;2022-07-06T03:43:46;16.55;;;11.00;;
63089;SDS011;49174;43.198;27.824;2022-07-06T03:46:11;17.33;;;10.18;;
63089;SDS011;49174;43.198;27.824;2022-07-06T03:48:37;28.05;;;10.95;;
63089;SDS011;49174;43.198;27.824;2022-07-06T03:51:03;14.07;;;9.82;;
63089;SDS011;49174;43.198;27.824;2022-07-06T03:53:28;12.07;;;9.18;;
63089;SDS011;49174;43.198;27.824;2022-07-06T03:55:54;17.60;;;9.65;;
63089;SDS011;49174;43.198;27.824;2022-07-06T03:58:39;14.05;;;12.00;;
63089;SDS011;49174;43.198;27.824;2022-07-06T04:01:05;14.70;;;10.80;;
63089;SDS011;49174;43.198;27.824;2022-07-06T04:03:30;14.70;;;10.32;;
63089;SDS011;49174;43.198;27.824;2022-07-06T04:05:56;13.25;;;10.55;;
63089;SDS011;49174;43.198;27.824;2022-07-06T04:08:21;12.90;;;10.73;;
63089;SDS011;49174;43.198;27.824;2022-07-06T04:10:47;15.25;;;9.90;;
63089;SDS011;49174;43.198;27.824;2022-07-06T04:13:12;15.90;;;9.85;;
63089;SDS011;49174;43.198;27.824;2022-07-06T04:15:38;15.85;;;9.40;;
63089;SDS011;49174;43.198;27.824;2022-07-06T04:18:04;16.80;;;9.50;;
63089;SDS011;49174;43.198;27.824;2022-07-06T04:20:30;18.00;;;11.20;;
63089;SDS011;49174;43.198;27.824;2022-07-06T04:22:55;14.50;;;10.48;;
63089;SDS011;49174;43.198;27.824;2022-07-06T04:25:21;15.20;;;10.57;;
63089;SDS011;49174;43.198;27.824;2022-07-06T04:27:47;16.95;;;10.23;;
63089;SDS011;49174;43.198;27.824;2022-07-06T04:30:12;18.85;;;11.05;;
63089;SDS011;49174;43.198;27.824;2022-07-06T04:32:38;15.75;;;11.00;;
63089;SDS011;49174;43.198;27.824;2022-07-06T04:35:04;17.35;;;12.57;;
63089;SDS011;49174;43.198;27.824;2022-07-06T04:37:50;26.30;;;12.35;;
63089;SDS011;49174;43.198;27.824;2022-07-06T04:40:16;19.95;;;13.43;;
63089;SDS011;49174;43.198;27.824;2022-07-06T04:42:42;16.67;;;12.63;;
63089;SDS011;49174;43.198;27.824;2022-07-06T04:45:07;17.02;;;11.70;;
63089;SDS011;49174;43.198;27.824;2022-07-06T04:47:34;13.18;;;11.18;;
63089;SDS011;49174;43.198;27.824;2022-07-06T04:50:00;15.07;;;10.85;;
63089;SDS011;49174;43.198;27.824;2022-07-06T04:52:26;13.32;;;9.30;;
63089;SDS011;49174;43.198;27.824;2022-07-06T04:54:54;16.17;;;8.98;;
63089;SDS011;49174;43.198;27.824;2022-07-06T04:57:20;9.32;;;7.82;;
63089;SDS011;49174;43.198;27.824;2022-07-06T04:59:46;18.38;;;12.98;;
63089;SDS011;49174;43.198;27.824;2022-07-06T05:02:11;22.20;;;19.40;;
63089;SDS011;49174;43.198;27.824;2022-07-06T05:04:37;14.90;;;10.73;;
63089;SDS011;49174;43.198;27.824;2022-07-06T05:07:03;17.80;;;8.88;;
63089;SDS011;49174;43.198;27.824;2022-07-06T05:09:29;11.98;;;8.57;;
63089;SDS011;49174;43.198;27.824;2022-07-06T05:11:54;16.63;;;9.48;;
63089;SDS011;49174;43.198;27.824;2022-07-06T05:14:21;14.02;;;8.50;;
63089;SDS011;49174;43.198;27.824;2022-07-06T05:16:46;13.05;;;8.90;;
63089;SDS011;49174;43.198;27.824;2022-07-06T05:19:12;13.25;;;9.25;;
63089;SDS011;49174;43.198;27.824;2022-07-06T05:21:37;14.98;;;10.20;;
63089;SDS011;49174;43.198;27.824;2022-07-06T05:24:03;12.77;;;10.05;;
63089;SDS011;49174;43.198;27.824;2022-07-06T05:26:29;16.13;;;10.43;;
63089;SDS011;49174;43.198;27.824;2022-07-06T05:28:54;17.90;;;9.63;;
63089;SDS011;49174;43.198;27.824;2022-07-06T05:31:20;10.80;;;8.90;;
63089;SDS011;49174;43.198;27.824;2022-07-06T05:33:46;15.65;;;9.32;;
63089;SDS011;49174;43.198;27.824;2022-07-06T05:36:11;12.30;;;9.07;;
63089;SDS011;49174;43.198;27.824;2022-07-06T05:38:37;8.95;;;6.53;;
63089;SDS011;49174;43.198;27.824;2022-07-06T05:41:02;10.63;;;6.80;;
63089;SDS011;49174;43.198;27.824;2022-07-06T05:43:28;8.90;;;6.22;;
63089;SDS011;49174;43.198;27.824;2022-07-06T05:45:53;7.35;;;5.97;;
63089;SDS011;49174;43.198;27.824;2022-07-06T05:48:19;12.23;;;5.88;;
63089;SDS011;49174;43.198;27.824;2022-07-06T05:51:03;28.65;;;21.67;;
63089;SDS011;49174;43.198;27.824;2022-07-06T05:53:28;13.32;;;11.52;;
63089;SDS011;49174;43.198;27.824;2022-07-06T05:55:54;7.47;;;5.15;;
63089;SDS011;49174;43.198;27.824;2022-07-06T05:58:19;6.35;;;5.72;;
63089;SDS011;49174;43.198;27.824;2022-07-06T06:00:45;9.60;;;6.35;;
63089;SDS011;49174;43.198;27.824;2022-07-06T06:03:11;24.02;;;20.27;;
63089;SDS011;49174;43.198;27.824;2022-07-06T06:05:36;12.38;;;7.57;;
63089;SDS011;49174;43.198;27.824;2022-07-06T06:08:03;14.98;;;7.88;;
63089;SDS011;49174;43.198;27.824;2022-07-06T06:10:28;15.18;;;8.70;;
63089;SDS011;49174;43.198;27.824;2022-07-06T06:13:04;9.20;;;7.75;;
63089;SDS011;49174;43.198;27.824;2022-07-06T06:15:29;12.38;;;8.18;;
63089;SDS011;49174;43.198;27.824;2022-07-06T06:17:55;10.05;;;7.32;;
63089;SDS011;49174;43.198;27.824;2022-07-06T06:20:20;10.52;;;7.47;;
63089;SDS011;49174;43.198;27.824;2022-07-06T06:22:50;10.95;;;8.88;;
63089;SDS011;49174;43.198;27.824;2022-07-06T06:25:18;15.07;;;8.50;;
63089;SDS011;49174;43.198;27.824;2022-07-06T06:27:46;11.40;;;8.35;;
63089;SDS011;49174;43.198;27.824;2022-07-06T06:30:12;11.82;;;8.68;;
63089;SDS011;49174;43.198;27.824;2022-07-06T06:43:50;10.82;;;8.35;;
63089;SDS011;49174;43.198;27.824;2022-07-06T06:46:15;14.05;;;8.13;;
63089;SDS011;49174;43.198;27.824;2022-07-06T06:48:41;10.88;;;7.13;;
63089;SDS011;49174;43.198;27.824;2022-07-06T06:51:06;14.57;;;7.05;;
63089;SDS011;49174;43.198;27.824;2022-07-06T06:53:32;10.10;;;6.35;;
63089;SDS011;49174;43.198;27.824;2022-07-06T06:55:58;8.80;;;6.47;;
63089;SDS011;49174;43.198;27.824;2022-07-06T06:58:23;14.80;;;7.40;;
63089;SDS011;49174;43.198;27.824;2022-07-06T07:00:49;10.05;;;7.03;;
63089;SDS011;49174;43.198;27.824;2022-07-06T07:03:14;10.70;;;7.15;;
63089;SDS011;49174;43.198;27.824;2022-07-06T07:05:40;12.93;;;7.13;;
63089;SDS011;49174;43.198;27.824;2022-07-06T07:08:05;12.98;;;7.45;;
63089;SDS011;49174;43.198;27.824;2022-07-06T07:10:31;12.00;;;7.38;;
63089;SDS011;49174;43.198;27.824;2022-07-06T07:12:58;14.23;;;7.43;;
63089;SDS011;49174;43.198;27.824;2022-07-06T07:15:23;11.30;;;6.35;;
63089;SDS011;49174;43.198;27.824;2022-07-06T07:17:49;15.32;;;7.60;;
63089;SDS011;49174;43.198;27.824;2022-07-06T07:20:14;10.75;;;7.43;;
63089;SDS011;49174;43.198;27.824;2022-07-06T07:22:40;11.38;;;8.57;;
63089;SDS011;49174;43.198;27.824;2022-07-06T07:25:05;14.40;;;7.35;;
63089;SDS011;49174;43.198;27.824;2022-07-06T07:27:32;12.27;;;7.65;;
63089;SDS011;49174;43.198;27.824;2022-07-06T07:29:57;8.88;;;7.35;;
63089;SDS011;49174;43.198;27.824;2022-07-06T07:32:23;12.15;;;7.80;;
63089;SDS011;49174;43.198;27.824;2022-07-06T07:34:48;11.98;;;6.72;;
63089;SDS011;49174;43.198;27.824;2022-07-06T07:37:14;10.93;;;6.53;;
63089;SDS011;49174;43.198;27.824;2022-07-06T07:39:40;8.25;;;6.15;;
63089;SDS011;49174;43.198;27.824;2022-07-06T07:42:06;11.05;;;6.47;;
63089;SDS011;49174;43.198;27.824;2022-07-06T07:44:31;6.68;;;5.88;;
63089;SDS011;49174;43.198;27.824;2022-07-06T07:46:57;7.50;;;5.22;;
63089;SDS011;49174;43.198;27.824;2022-07-06T07:49:22;9.15;;;4.68;;
63089;SDS011;49174;43.198;27.824;2022-07-06T07:51:48;5.85;;;4.22;;
63089;SDS011;49174;43.198;27.824;2022-07-06T07:54:14;8.35;;;5.18;;
63089;SDS011;49174;43.198;27.824;2022-07-06T07:56:40;7.88;;;3.83;;
63089;SDS011;49174;43.198;27.824;2022-07-06T07:59:06;10.95;;;4.45;;
63089;SDS011;49174;43.198;27.824;2022-07-06T08:01:32;4.93;;;3.40;;
63089;SDS011;49174;43.198;27.824;2022-07-06T08:03:58;6.45;;;4.22;;
63089;SDS011;49174;43.198;27.824;2022-07-06T08:06:25;12.07;;;4.75;;
63089;SDS011;49174;43.198;27.824;2022-07-06T08:08:51;4.13;;;3.67;;
63089;SDS011;49174;43.198;27.824;2022-07-06T08:11:17;5.90;;;3.97;;
63089;SDS011;49174;43.198;27.824;2022-07-06T08:13:42;5.88;;;3.45;;
63089;SDS011;49174;43.198;27.824;2022-07-06T08:16:08;3.95;;;3.47;;
63089;SDS011;49174;43.198;27.824;2022-07-06T08:18:35;6.97;;;3.28;;
63089;SDS011;49174;43.198;27.824;2022-07-06T08:21:00;3.25;;;2.80;;
63089;SDS011;49174;43.198;27.824;2022-07-06T08:23:26;3.53;;;2.33;;
63089;SDS011;49174;43.198;27.824;2022-07-06T08:25:52;5.22;;;3.10;;
63089;SDS011;49174;43.198;27.824;2022-07-06T08:28:18;5.47;;;2.90;;
63089;SDS011;49174;43.198;27.824;2022-07-06T08:30:44;5.72;;;2.58;;
63089;SDS011;49174;43.198;27.824;2022-07-06T08:33:09;4.88;;;2.50;;
63089;SDS011;49174;43.198;27.824;2022-07-06T08:35:35;3.83;;;2.72;;
63089;SDS011;49174;43.198;27.824;2022-07-06T08:38:01;3.03;;;2.40;;
63089;SDS011;49174;43.198;27.824;2022-07-06T08:40:28;6.25;;;2.72;;
63089;SDS011;49174;43.198;27.824;2022-07-06T08:42:58;3.65;;;2.92;;
63089;SDS011;49174;43.198;27.824;2022-07-06T08:45:25;4.45;;;2.63;;
63089;SDS011;49174;43.198;27.824;2022-07-06T08:47:50;7.03;;;2.90;;
63089;SDS011;49174;43.198;27.824;2022-07-06T08:50:19;6.65;;;3.00;;
63089;SDS011;49174;43.198;27.824;2022-07-06T08:52:47;4.30;;;2.88;;
63089;SDS011;49174;43.198;27.824;2022-07-06T08:55:14;6.00;;;3.72;;
63089;SDS011;49174;43.198;27.824;2022-07-06T08:57:42;4.55;;;3.15;;
63089;SDS011;49174;43.198;27.824;2022-07-06T09:00:11;5.28;;;2.88;;
63089;SDS011;49174;43.198;27.824;2022-07-06T09:02:37;4.82;;;3.30;;
63089;SDS011;49174;43.198;27.824;2022-07-06T09:05:05;5.75;;;3.13;;
63089;SDS011;49174;43.198;27.824;2022-07-06T09:07:33;6.43;;;2.60;;
63089;SDS011;49174;43.198;27.824;2022-07-06T09:10:00;4.03;;;2.95;;
63089;SDS011;49174;43.198;27.824;2022-07-06T09:12:27;36.75;;;29.33;;
63089;SDS011;49174;43.198;27.824;2022-07-06T09:14:58;8.93;;;5.15;;
63089;SDS011;49174;43.198;27.824;2022-07-06T09:17:27;4.28;;;3.35;;
63089;SDS011;49174;43.198;27.824;2022-07-06T09:19:54;5.25;;;3.35;;
63089;SDS011;49174;43.198;27.824;2022-07-06T09:22:25;6.70;;;2.95;;
63089;SDS011;49174;43.198;27.824;2022-07-06T09:24:52;5.93;;;2.90;;
63089;SDS011;49174;43.198;27.824;2022-07-06T09:27:17;4.25;;;2.83;;
63089;SDS011;49174;43.198;27.824;2022-07-06T09:29:45;5.28;;;2.95;;
63089;SDS011;49174;43.198;27.824;2022-07-06T09:32:10;6.30;;;2.60;;
63089;SDS011;49174;43.198;27.824;2022-07-06T09:34:40;3.35;;;2.60;;
63089;SDS011;49174;43.198;27.824;2022-07-06T09:37:09;5.20;;;2.75;;
63089;SDS011;49174;43.198;27.824;2022-07-06T09:39:35;5.38;;;2.45;;
63089;SDS011;49174;43.198;27.824;2022-07-06T09:42:01;3.67;;;2.75;;
63089;SDS011;49174;43.198;27.824;2022-07-06T09:44:38;4.70;;;2.67;;
63089;SDS011;49174;43.198;27.824;2022-07-06T09:47:06;4.68;;;2.47;;
63089;SDS011;49174;43.198;27.824;2022-07-06T09:49:33;8.70;;;3.45;;
63089;SDS011;49174;43.198;27.824;2022-07-06T09:52:09;4.28;;;2.25;;
63089;SDS011;49174;43.198;27.824;2022-07-06T09:54:37;2.70;;;2.20;;
63089;SDS011;49174;43.198;27.824;2022-07-06T09:57:03;4.00;;;2.60;;
63089;SDS011;49174;43.198;27.824;2022-07-06T09:59:31;3.83;;;2.70;;
63089;SDS011;49174;43.198;27.824;2022-07-06T10:01:58;5.25;;;2.65;;
63089;SDS011;49174;43.198;27.824;2022-07-06T10:04:28;2.92;;;2.13;;
63089;SDS011;49174;43.198;27.824;2022-07-06T10:06:55;4.55;;;2.83;;
63089;SDS011;49174;43.198;27.824;2022-07-06T10:09:23;3.15;;;2.42;;
63089;SDS011;49174;43.198;27.824;2022-07-06T10:11:51;4.03;;;2.85;;
63089;SDS011;49174;43.198;27.824;2022-07-06T10:14:25;4.03;;;2.97;;
63089;SDS011;49174;43.198;27.824;2022-07-06T10:16:55;7.35;;;3.03;;
63089;SDS011;49174;43.198;27.824;2022-07-06T10:19:23;3.30;;;2.70;;
63089;SDS011;49174;43.198;27.824;2022-07-06T10:21:49;3.65;;;2.47;;
63089;SDS011;49174;43.198;27.824;2022-07-06T10:24:17;5.60;;;2.85;;
63089;SDS011;49174;43.198;27.824;2022-07-06T10:26:45;3.65;;;2.50;;
63089;SDS011;49174;43.198;27.824;2022-07-06T10:29:11;5.72;;;2.30;;
63089;SDS011;49174;43.198;27.824;2022-07-06T10:31:38;6.07;;;2.88;;
63089;SDS011;49174;43.198;27.824;2022-07-06T10:34:09;4.93;;;2.42;;
63089;SDS011;49174;43.198;27.824;2022-07-06T10:36:38;3.53;;;2.45;;
63089;SDS011;49174;43.198;27.824;2022-07-06T10:39:05;5.63;;;2.65;;
63089;SDS011;49174;43.198;27.824;2022-07-06T10:41:50;4.22;;;3.05;;
63089;SDS011;49174;43.198;27.824;2022-07-06T10:44:17;2.85;;;2.33;;
63089;SDS011;49174;43.198;27.824;2022-07-06T10:46:50;4.22;;;2.50;;
63089;SDS011;49174;43.198;27.824;2022-07-06T10:49:21;5.18;;;2.53;;
63089;SDS011;49174;43.198;27.824;2022-07-06T10:51:48;6.63;;;2.95;;
63089;SDS011;49174;43.198;27.824;2022-07-06T10:54:15;4.90;;;2.65;;
63089;SDS011;49174;43.198;27.824;2022-07-06T11:04:41;3.90;;;2.70;;
63089;SDS011;49174;43.198;27.824;2022-07-06T11:07:18;4.30;;;2.63;;
63089;SDS011;49174;43.198;27.824;2022-07-06T11:09:55;4.88;;;2.65;;
63089;SDS011;49174;43.198;27.824;2022-07-06T11:12:21;4.35;;;2.63;;
63089;SDS011;49174;43.198;27.824;2022-07-06T11:14:47;3.50;;;2.70;;
63089;SDS011;49174;43.198;27.824;2022-07-06T11:17:15;8.32;;;2.60;;
63089;SDS011;49174;43.198;27.824;2022-07-06T11:19:48;5.53;;;2.70;;
63089;SDS011;49174;43.198;27.824;2022-07-06T11:22:33;3.10;;;2.50;;
63089;SDS011;49174;43.198;27.824;2022-07-06T11:25:01;3.38;;;3.00;;
63089;SDS011;49174;43.198;27.824;2022-07-06T11:27:28;6.05;;;5.18;;
63089;SDS011;49174;43.198;27.824;2022-07-06T11:29:54;5.38;;;3.22;;
63089;SDS011;49174;43.198;27.824;2022-07-06T11:32:23;3.88;;;2.97;;
63089;SDS011;49174;43.198;27.824;2022-07-06T11:34:50;6.43;;;2.95;;
63089;SDS011;49174;43.198;27.824;2022-07-06T11:37:16;4.97;;;3.20;;
63089;SDS011;49174;43.198;27.824;2022-07-06T11:39:44;9.38;;;2.95;;
63089;SDS011;49174;43.198;27.824;2022-07-06T11:42:12;4.30;;;2.65;;
63089;SDS011;49174;43.198;27.824;2022-07-06T11:44:39;9.80;;;2.55;;
63089;SDS011;49174;43.198;27.824;2022-07-06T11:47:06;5.85;;;3.17;;
63089;SDS011;49174;43.198;27.824;2022-07-06T11:49:34;5.63;;;3.10;;
63089;SDS011;49174;43.198;27.824;2022-07-06T11:52:07;4.97;;;2.47;;
63089;SDS011;49174;43.198;27.824;2022-07-06T11:57:00;5.80;;;3.15;;
63089;SDS011;49174;43.198;27.824;2022-07-06T12:04:35;5.45;;;2.10;;
63089;SDS011;49174;43.198;27.824;2022-07-06T12:07:05;9.57;;;3.00;;
63089;SDS011;49174;43.198;27.824;2022-07-06T12:09:33;4.78;;;2.70;;
63089;SDS011;49174;43.198;27.824;2022-07-06T12:12:01;3.60;;;2.13;;
63089;SDS011;49174;43.198;27.824;2022-07-06T12:14:28;5.95;;;2.88;;
63089;SDS011;49174;43.198;27.824;2022-07-06T12:16:55;3.65;;;2.45;;
63089;SDS011;49174;43.198;27.824;2022-07-06T12:19:21;3.17;;;2.05;;
63089;SDS011;49174;43.198;27.824;2022-07-06T12:21:49;3.85;;;2.22;;
63089;SDS011;49174;43.198;27.824;2022-07-06T12:24:24;4.47;;;2.65;;
63089;SDS011;49174;43.198;27.824;2022-07-06T12:26:52;4.03;;;2.30;;
63089;SDS011;49174;43.198;27.824;2022-07-06T12:29:18;5.85;;;2.40;;
63089;SDS011;49174;43.198;27.824;2022-07-06T12:31:54;5.53;;;2.80;;
63089;SDS011;49174;43.198;27.824;2022-07-06T12:34:22;4.40;;;2.35;;
63089;SDS011;49174;43.198;27.824;2022-07-06T12:36:49;3.95;;;1.92;;
63089;SDS011;49174;43.198;27.824;2022-07-06T12:39:17;6.78;;;2.47;;
63089;SDS011;49174;43.198;27.824;2022-07-06T12:41:48;4.13;;;2.33;;
63089;SDS011;49174;43.198;27.824;2022-07-06T12:44:16;3.88;;;2.30;;
63089;SDS011;49174;43.198;27.824;2022-07-06T12:46:43;3.75;;;2.35;;
63089;SDS011;49174;43.198;27.824;2022-07-06T12:49:11;5.10;;;2.30;;
63089;SDS011;49174;43.198;27.824;2022-07-06T12:54:18;6.60;;;2.42;;
63089;SDS011;49174;43.198;27.824;2022-07-06T12:56:59;8.82;;;5.47;;
63089;SDS011;49174;43.198;27.824;2022-07-06T13:00:15;6.35;;;2.60;;
63089;SDS011;49174;43.198;27.824;2022-07-06T13:02:26;3.58;;;2.58;;
63089;SDS011;49174;43.198;27.824;2022-07-06T13:04:57;4.10;;;2.42;;
63089;SDS011;49174;43.198;27.824;2022-07-06T13:07:25;3.05;;;2.42;;
63089;SDS011;49174;43.198;27.824;2022-07-06T13:09:52;4.68;;;2.90;;
63089;SDS011;49174;43.198;27.824;2022-07-06T13:12:18;4.18;;;2.50;;
63089;SDS011;49174;43.198;27.824;2022-07-06T13:14:45;4.30;;;3.08;;
63089;SDS011;49174;43.198;27.824;2022-07-06T13:17:10;3.65;;;2.65;;
63089;SDS011;49174;43.198;27.824;2022-07-06T13:19:36;4.00;;;2.60;;
63089;SDS011;49174;43.198;27.824;2022-07-06T13:22:02;3.03;;;2.40;;
63089;SDS011;49174;43.198;27.824;2022-07-06T13:24:28;4.05;;;2.97;;
63089;SDS011;49174;43.198;27.824;2022-07-06T13:26:54;4.47;;;2.25;;
63089;SDS011;49174;43.198;27.824;2022-07-06T13:29:21;4.20;;;2.28;;
63089;SDS011;49174;43.198;27.824;2022-07-06T13:31:46;6.53;;;2.25;;
63089;SDS011;49174;43.198;27.824;2022-07-06T13:34:12;3.17;;;2.50;;
63089;SDS011;49174;43.198;27.824;2022-07-06T13:36:41;4.88;;;2.42;;
63089;SDS011;49174;43.198;27.824;2022-07-06T13:39:07;2.65;;;2.00;;
63089;SDS011;49174;43.198;27.824;2022-07-06T13:41:33;4.10;;;2.50;;
63089;SDS011;49174;43.198;27.824;2022-07-06T13:43:59;4.68;;;2.05;;
63089;SDS011;49174;43.198;27.824;2022-07-06T13:46:28;3.17;;;2.05;;
63089;SDS011;49174;43.198;27.824;2022-07-06T13:48:55;4.15;;;2.47;;
63089;SDS011;49174;43.198;27.824;2022-07-06T13:51:25;4.18;;;2.15;;
63089;SDS011;49174;43.198;27.824;2022-07-06T13:53:52;4.03;;;2.22;;
63089;SDS011;49174;43.198;27.824;2022-07-06T13:56:18;4.15;;;1.90;;
63089;SDS011;49174;43.198;27.824;2022-07-06T13:58:44;4.78;;;2.30;;
63089;SDS011;49174;43.198;27.824;2022-07-06T14:01:10;2.75;;;2.15;;
63089;SDS011;49174;43.198;27.824;2022-07-06T14:03:38;4.07;;;2.40;;
63089;SDS011;49174;43.198;27.824;2022-07-06T14:06:04;4.35;;;2.22;;
63089;SDS011;49174;43.198;27.824;2022-07-06T14:08:34;3.55;;;2.20;;
63089;SDS011;49174;43.198;27.824;2022-07-06T14:11:01;6.28;;;2.55;;
63089;SDS011;49174;43.198;27.824;2022-07-06T14:13:27;3.50;;;2.00;;
63089;SDS011;49174;43.198;27.824;2022-07-06T14:15:53;5.78;;;2.25;;
63089;SDS011;49174;43.198;27.824;2022-07-06T14:18:19;4.38;;;2.10;;
63089;SDS011;49174;43.198;27.824;2022-07-06T14:20:45;4.72;;;2.50;;
63089;SDS011;49174;43.198;27.824;2022-07-06T14:23:12;3.90;;;1.83;;
63089;SDS011;49174;43.198;27.824;2022-07-06T14:25:40;2.45;;;2.10;;
63089;SDS011;49174;43.198;27.824;2022-07-06T14:28:06;2.85;;;2.25;;
63089;SDS011;49174;43.198;27.824;2022-07-06T14:30:33;4.82;;;2.25;;
63089;SDS011;49174;43.198;27.824;2022-07-06T14:33:02;4.55;;;1.88;;
63089;SDS011;49174;43.198;27.824;2022-07-06T14:35:43;3.55;;;2.38;;
63089;SDS011;49174;43.198;27.824;2022-07-06T14:38:12;6.43;;;2.10;;
63089;SDS011;49174;43.198;27.824;2022-07-06T14:40:39;5.88;;;2.17;;
63089;SDS011;49174;43.198;27.824;2022-07-06T14:43:05;4.55;;;2.45;;
63089;SDS011;49174;43.198;27.824;2022-07-06T14:45:31;3.55;;;2.10;;
63089;SDS011;49174;43.198;27.824;2022-07-06T14:47:57;10.23;;;3.35;;
63089;SDS011;49174;43.198;27.824;2022-07-06T14:50:23;10.73;;;4.65;;
63089;SDS011;49174;43.198;27.824;2022-07-06T14:52:49;10.30;;;6.50;;
63089;SDS011;49174;43.198;27.824;2022-07-06T14:55:16;6.80;;;4.45;;
63089;SDS011;49174;43.198;27.824;2022-07-06T14:57:41;44.85;;;38.22;;